createdAt,value
2023-01-03T00:01:44.534Z,41.45
2023-01-03T00:04:13.896Z,39.92
2023-01-03T00:06:46.857Z,42.85
2023-01-03T00:09:18.073Z,40.45
2023-01-03T00:12:06.435Z,39.95
2023-01-03T00:14:37.277Z,39.58
2023-01-03T00:17:07.613Z,39.57
2023-01-03T00:19:39.145Z,40.35
2023-01-03T00:22:09.614Z,39.78
2023-01-03T00:24:38.072Z,39.75
2023-01-03T00:27:06.846Z,39.88
2023-01-03T00:29:35.351Z,39.90
2023-01-03T00:32:04.358Z,40.33
2023-01-03T00:34:33.115Z,40.10
2023-01-03T00:37:01.803Z,39.92
2023-01-03T00:39:31.621Z,40.03
2023-01-03T00:42:00.123Z,40.20
2023-01-03T00:44:28.746Z,39.75
2023-01-03T00:46:57.179Z,40.20
2023-01-03T00:49:25.932Z,40.28
2023-01-03T00:51:54.511Z,40.30
2023-01-03T00:54:23.841Z,39.83
2023-01-03T00:56:54.197Z,40.85
2023-01-03T00:59:23.581Z,40.08
2023-01-03T01:01:54.571Z,39.95
2023-01-03T01:04:25.175Z,39.75
2023-01-03T01:06:55.881Z,39.95
2023-01-03T01:09:26.928Z,39.70
2023-01-03T01:11:57.231Z,40.33
2023-01-03T01:14:30.068Z,39.75
2023-01-03T01:17:01.459Z,39.83
2023-01-03T01:19:33.575Z,39.15
2023-01-03T01:22:02.794Z,39.53
2023-01-03T01:24:31.283Z,39.67
2023-01-03T01:27:01.387Z,39.70
2023-01-03T01:29:29.941Z,39.55
2023-01-03T01:31:58.427Z,40.00
2023-01-03T01:34:26.881Z,39.70
2023-01-03T01:36:55.313Z,40.05
2023-01-03T01:39:25.794Z,40.17
2023-01-03T01:42:19.757Z,40.15
2023-01-03T01:44:55.621Z,40.38
2023-01-03T01:47:40.173Z,39.10
2023-01-03T01:50:21.281Z,39.78
2023-01-03T01:52:56.393Z,39.80
2023-01-03T01:55:32.961Z,40.05
2023-01-03T01:58:02.677Z,39.80
2023-01-03T02:00:33.684Z,39.88
2023-01-03T02:03:02.575Z,40.08
2023-01-03T02:05:33.819Z,39.85
2023-01-03T02:08:02.647Z,44.50
2023-01-03T02:10:49.134Z,40.42
2023-01-03T02:13:34.960Z,41.22
2023-01-03T02:16:25.368Z,39.78
2023-01-03T02:19:04.837Z,40.92
2023-01-03T02:22:00.724Z,40.20
2023-01-03T02:25:13.716Z,39.50
2023-01-03T02:28:26.975Z,39.40
2023-01-03T02:31:01.141Z,39.08
2023-01-03T02:33:38.408Z,38.92
2023-01-03T02:36:16.909Z,39.42
2023-01-03T02:38:54.715Z,39.90
2023-01-03T02:41:33.306Z,39.42
2023-01-03T02:44:15.139Z,39.30
2023-01-03T02:49:24.195Z,39.08
2023-01-03T02:51:56.284Z,39.35
2023-01-03T02:54:32.020Z,39.17
2023-01-03T02:57:06.214Z,39.20
2023-01-03T02:59:41.178Z,39.03
2023-01-03T03:02:13.316Z,39.75
2023-01-03T03:04:43.385Z,39.17
2023-01-03T03:07:19.656Z,39.70
2023-01-03T03:10:05.613Z,39.10
2023-01-03T03:12:52.993Z,38.75
2023-01-03T03:15:25.243Z,39.38
2023-01-03T03:18:03.244Z,38.65
2023-01-03T03:20:48.890Z,42.95
2023-01-03T03:23:40.784Z,43.17
2023-01-03T03:26:14.015Z,43.72
2023-01-03T03:28:45.386Z,43.80
2023-01-03T03:31:18.574Z,40.08
2023-01-03T03:33:53.873Z,39.47
2023-01-03T03:36:32.045Z,43.08
2023-01-03T03:39:00.953Z,43.22
2023-01-03T03:41:56.350Z,43.33
2023-01-03T03:44:51.825Z,43.72
2023-01-03T03:47:34.994Z,40.20
2023-01-03T03:50:11.971Z,42.97
2023-01-03T03:52:43.613Z,43.55
2023-01-03T03:55:18.916Z,39.83
2023-01-03T04:02:51.346Z,39.50
2023-01-03T04:05:24.785Z,38.75
2023-01-03T04:07:53.440Z,38.95
2023-01-03T04:10:23.614Z,38.95
2023-01-03T08:48:51.235Z,39.05
2023-01-03T08:51:19.698Z,39.58
2023-01-03T08:53:48.073Z,39.03
2023-01-03T08:56:16.542Z,40.03
2023-01-03T08:58:44.918Z,39.72
2023-01-03T09:01:14.210Z,40.30
2023-01-03T09:03:42.851Z,39.70
2023-01-03T09:06:12.784Z,40.10
2023-01-03T09:08:41.183Z,39.97
2023-01-03T09:11:10.820Z,40.22
2023-01-03T09:13:39.535Z,40.55
2023-01-03T09:16:11.462Z,40.15
2023-01-03T09:28:36.109Z,40.63
2023-01-03T09:54:17.344Z,40.80
2023-01-03T10:05:52.520Z,40.22
2023-01-03T10:08:39.389Z,40.17
2023-01-03T10:11:10.926Z,40.95
2023-01-03T10:14:05.226Z,40.65
2023-01-03T10:16:52.277Z,41.28
2023-01-03T10:20:02.483Z,41.60
2023-01-03T10:22:32.956Z,40.75
2023-01-03T10:25:12.253Z,41.40
2023-01-03T10:27:47.785Z,40.78
2023-01-03T10:33:12.134Z,41.05
2023-01-03T10:35:40.543Z,41.15
2023-01-03T10:38:09.168Z,41.17
2023-01-03T10:40:42.964Z,41.22
2023-01-03T10:43:18.712Z,41.92
2023-01-03T10:45:58.165Z,41.47
2023-01-03T10:48:52.400Z,41.42
2023-01-03T10:51:29.578Z,45.10
2023-01-03T10:54:01.072Z,42.88
2023-01-03T10:59:17.113Z,41.80
2023-01-03T11:02:01.368Z,45.17
2023-01-03T11:04:31.915Z,47.03
2023-01-03T11:07:14.018Z,46.38
2023-01-03T11:09:52.071Z,46.30
2023-01-03T11:12:29.668Z,46.30
2023-01-03T11:15:01.184Z,46.47
2023-01-03T11:17:32.077Z,46.92
2023-01-03T11:20:00.628Z,46.88
2023-01-03T11:22:42.354Z,49.42
2023-01-03T11:25:26.281Z,48.22
2023-01-03T11:28:33.161Z,46.40
2023-01-03T11:31:08.567Z,50.15
2023-01-03T11:34:00.289Z,44.13
2023-01-03T11:36:41.208Z,43.40
2023-01-03T11:39:35.036Z,42.80
2023-01-03T11:42:29.963Z,42.28
2023-01-03T11:45:49.239Z,43.60
2023-01-03T11:48:59.558Z,41.85
2023-01-03T11:51:37.583Z,43.33
2023-01-03T11:54:20.462Z,42.80
2023-01-03T11:56:50.679Z,43.05
2023-01-03T11:59:52.900Z,42.15
2023-01-03T12:02:56.797Z,42.83
2023-01-03T12:05:47.323Z,42.03
2023-01-03T12:08:49.020Z,43.17
2023-01-03T12:11:31.541Z,43.17
2023-01-03T12:14:07.916Z,43.10
2023-01-03T12:16:42.991Z,43.88
2023-01-03T12:19:27.560Z,41.55
2023-01-03T12:22:02.855Z,42.65
2023-01-03T12:24:41.109Z,44.03
2023-01-03T12:27:16.653Z,43.00
2023-01-03T12:29:57.085Z,44.05
2023-01-03T12:32:35.039Z,42.72
2023-01-03T12:35:29.313Z,41.55
2023-01-03T12:40:39.232Z,41.65
2023-01-03T12:43:17.853Z,41.75
2023-01-03T12:45:52.954Z,42.42
2023-01-03T12:48:43.243Z,42.92
2023-01-03T12:51:13.010Z,42.03
2023-01-03T12:53:49.180Z,42.15
2023-01-03T12:57:08.928Z,42.47
2023-01-03T13:00:08.165Z,41.50
2023-01-03T13:02:49.370Z,42.30
2023-01-03T13:05:25.861Z,41.72
2023-01-03T13:08:06.009Z,41.95
2023-01-03T13:10:40.220Z,45.83
2023-01-03T13:13:15.482Z,46.38
2023-01-03T13:15:44.006Z,42.67
2023-01-03T13:18:36.167Z,42.03
2023-01-03T13:21:52.506Z,41.50
2023-01-03T13:24:43.147Z,40.67
2023-01-03T13:27:38.575Z,41.78
2023-01-03T13:55:07.193Z,40.42
2023-01-03T13:57:53.109Z,45.30
2023-01-03T14:00:24.851Z,45.88
2023-01-03T14:06:36.352Z,41.42
2023-01-03T14:09:36.485Z,41.42
2023-01-03T14:12:26.849Z,44.83
2023-01-03T14:14:57.552Z,46.05
2023-01-03T14:17:32.317Z,42.13
2023-01-03T14:20:07.868Z,41.70
2023-01-03T14:22:40.697Z,41.40
2023-01-03T14:25:29.056Z,41.00
2023-01-03T14:27:58.177Z,40.55
2023-01-03T14:30:32.598Z,40.67
2023-01-03T14:33:02.805Z,44.03
2023-01-03T14:35:36.972Z,41.78
2023-01-03T14:38:07.297Z,40.65
2023-01-03T14:40:36.343Z,40.45
2023-01-03T14:43:07.833Z,40.40
2023-01-03T14:45:37.564Z,40.42
2023-01-03T14:48:08.074Z,40.63
2023-01-03T14:50:36.520Z,41.47
2023-01-03T14:53:04.968Z,40.90
2023-01-03T14:55:35.082Z,44.03
2023-01-03T14:58:18.286Z,44.58
2023-01-03T15:00:46.894Z,41.13
2023-01-03T15:03:16.921Z,40.65
2023-01-03T15:05:45.590Z,40.55
2023-01-03T15:08:27.110Z,40.33
2023-01-03T15:11:00.231Z,39.85
2023-01-03T15:13:34.985Z,40.28
2023-01-03T15:16:06.947Z,40.92
2023-01-03T15:18:46.897Z,40.38
2023-01-03T15:21:21.828Z,40.90
2023-01-03T15:28:53.839Z,39.37
2023-01-03T15:31:37.312Z,42.90
2023-01-03T15:34:19.399Z,43.90
2023-01-03T15:36:52.868Z,43.95
2023-01-03T15:39:25.956Z,43.90
2023-01-03T15:42:43.382Z,44.20
2023-01-03T15:45:11.593Z,43.77
2023-01-03T15:47:40.753Z,44.05
2023-01-03T15:50:18.832Z,44.30
2023-01-03T15:52:47.955Z,41.00
2023-01-03T16:07:51.723Z,39.80
2023-01-03T16:10:21.757Z,40.38
2023-01-03T16:12:50.435Z,39.75
2023-01-03T16:15:21.180Z,43.72
2023-01-03T16:17:50.694Z,45.10
2023-01-03T16:20:21.393Z,46.42
2023-01-03T16:23:01.138Z,47.90
2023-01-03T16:25:30.691Z,46.78
2023-01-03T16:27:59.141Z,45.90
2023-01-03T16:30:27.702Z,45.55
2023-01-03T16:32:56.144Z,45.43
2023-01-03T16:35:26.201Z,45.28
2023-01-03T16:37:54.666Z,45.37
2023-01-03T16:40:23.203Z,46.83
2023-01-03T16:42:51.625Z,47.47
2023-01-03T16:45:20.263Z,47.33
2023-01-03T16:47:49.726Z,47.28
2023-01-03T16:50:21.162Z,48.13
2023-01-03T16:52:58.154Z,48.17
2023-01-03T16:55:29.851Z,49.70
2023-01-03T16:57:59.044Z,50.13
2023-01-03T17:00:29.858Z,50.13
2023-01-03T17:03:00.157Z,49.20
2023-01-03T17:05:30.210Z,49.88
2023-01-03T17:08:06.541Z,49.70
2023-01-03T17:10:40.344Z,49.78
2023-01-03T17:13:20.694Z,49.50
2023-01-03T17:15:49.199Z,49.40
2023-01-03T17:18:19.954Z,47.50
2023-01-03T17:20:53.989Z,45.70
2023-01-03T17:23:24.482Z,44.92
2023-01-03T17:25:53.047Z,44.85
2023-01-03T17:28:21.875Z,46.05
2023-01-03T17:30:51.524Z,46.65
2023-01-03T17:33:20.000Z,46.40
2023-01-03T17:35:48.952Z,46.22
2023-01-03T17:38:26.684Z,46.80
2023-01-03T17:40:57.454Z,46.30
2023-01-03T17:43:27.184Z,46.47
2023-01-03T17:46:22.604Z,46.67
2023-01-03T17:49:09.101Z,47.22
2023-01-03T17:51:37.561Z,46.83
2023-01-03T17:54:06.268Z,46.95
2023-01-03T17:56:37.379Z,48.10
2023-01-03T17:59:05.969Z,48.75
2023-01-03T18:01:35.318Z,49.85
2023-01-03T18:04:03.924Z,49.58
2023-01-03T18:06:32.535Z,49.97
2023-01-03T18:09:05.629Z,48.88
2023-01-03T18:11:35.544Z,46.42
2023-01-03T18:14:04.039Z,45.97
2023-01-03T18:16:32.599Z,46.13
2023-01-03T18:19:01.084Z,45.85
2023-01-03T18:21:29.548Z,46.13
2023-01-03T18:24:01.064Z,46.53
2023-01-03T18:26:39.776Z,47.13
2023-01-03T18:29:12.038Z,47.40
2023-01-03T18:31:40.844Z,47.38
2023-01-03T18:34:10.126Z,47.40
2023-01-03T18:36:42.693Z,47.25
2023-01-03T18:39:15.572Z,47.30
2023-01-03T18:41:46.055Z,47.85
2023-01-03T18:44:23.075Z,47.50
2023-01-03T18:46:52.716Z,47.28
2023-01-03T18:49:21.419Z,46.88
2023-01-03T18:51:53.972Z,48.03
2023-01-03T18:54:22.510Z,47.83
2023-01-03T18:56:52.340Z,47.58
2023-01-03T18:59:24.832Z,47.50
2023-01-03T19:01:53.847Z,47.35
2023-01-03T19:04:22.587Z,47.45
2023-01-03T19:06:52.187Z,47.33
2023-01-03T19:09:23.762Z,47.72
2023-01-03T19:11:55.360Z,48.08
2023-01-03T19:14:23.840Z,48.45
2023-01-03T19:16:52.295Z,48.20
2023-01-03T19:19:20.761Z,49.03
2023-01-03T19:21:49.750Z,49.00
2023-01-03T19:24:25.715Z,49.10
2023-01-03T19:26:58.518Z,49.43
2023-01-03T19:29:36.709Z,51.67
2023-01-03T19:32:08.238Z,51.17
2023-01-03T19:34:36.652Z,49.92
2023-01-03T19:37:05.309Z,50.38
2023-01-03T19:39:37.384Z,50.78
2023-01-03T19:42:31.403Z,50.60
2023-01-03T19:45:01.191Z,51.53
2023-01-03T19:47:29.745Z,51.15
2023-01-03T19:49:59.354Z,51.50
2023-01-03T19:52:27.853Z,51.67
2023-01-03T19:54:56.409Z,51.20
2023-01-03T19:57:33.037Z,52.28
2023-01-03T20:00:03.725Z,52.15
2023-01-03T20:02:39.914Z,51.97
2023-01-03T20:05:19.710Z,51.83
2023-01-03T20:07:49.698Z,51.22
2023-01-03T20:10:21.555Z,52.10
2023-01-03T20:12:54.635Z,52.10
2023-01-03T20:15:26.611Z,51.50
2023-01-03T20:17:55.664Z,51.67
2023-01-03T20:20:29.515Z,51.67
2023-01-03T20:23:15.876Z,52.00
2023-01-03T20:25:45.613Z,51.90
2023-01-03T20:28:29.000Z,51.33
2023-01-03T20:30:58.396Z,51.65
2023-01-03T20:33:27.581Z,53.22
2023-01-03T20:36:14.421Z,52.45
2023-01-03T20:38:50.621Z,52.00
2023-01-03T20:41:20.556Z,51.70
2023-01-03T20:43:52.293Z,52.28
2023-01-03T20:46:22.979Z,52.38
2023-01-03T20:48:57.483Z,51.53
2023-01-03T20:51:26.637Z,52.13
2023-01-03T20:53:55.678Z,52.13
2023-01-03T20:56:24.620Z,51.75
2023-01-03T20:58:54.514Z,52.00
2023-01-03T21:01:23.115Z,51.67
2023-01-03T21:03:51.769Z,52.58
2023-01-03T21:06:23.016Z,51.58
2023-01-03T21:08:57.797Z,52.83
2023-01-03T21:11:29.298Z,52.58
2023-01-03T21:14:01.011Z,52.30
2023-01-03T21:16:36.640Z,53.05
2023-01-03T21:19:13.360Z,52.80
2023-01-03T21:21:43.245Z,52.15
2023-01-03T21:24:12.788Z,53.00
2023-01-03T21:26:41.350Z,52.95
2023-01-03T21:29:26.325Z,53.08
2023-01-03T21:31:54.821Z,52.13
2023-01-03T21:34:23.689Z,52.92
2023-01-03T21:36:52.242Z,51.92
2023-01-03T21:39:20.747Z,52.00
2023-01-03T21:42:06.463Z,52.05
2023-01-03T21:44:36.354Z,51.53
2023-01-03T21:47:04.795Z,52.75
2023-01-03T21:49:33.462Z,52.13
2023-01-03T21:52:01.882Z,52.05
2023-01-03T21:54:30.329Z,52.38
2023-01-03T21:56:58.789Z,51.80
2023-01-03T21:59:27.240Z,51.75
2023-01-03T22:02:14.632Z,52.92
2023-01-03T22:04:43.084Z,52.13
2023-01-03T22:07:11.657Z,52.25
2023-01-03T22:09:57.462Z,52.30
2023-01-03T22:12:25.961Z,53.10
2023-01-03T22:14:54.377Z,53.08
2023-01-03T22:17:24.281Z,52.65
2023-01-03T22:19:52.815Z,52.50
2023-01-03T22:22:21.195Z,51.85
2023-01-03T22:24:49.758Z,51.80
2023-01-03T22:27:18.608Z,52.83
2023-01-03T22:29:47.025Z,51.50
2023-01-03T22:32:15.412Z,52.42
2023-01-03T22:34:45.292Z,51.92
2023-01-03T22:37:13.980Z,52.03
2023-01-03T22:39:42.454Z,52.85
2023-01-03T22:42:16.004Z,52.40
2023-01-03T22:44:48.721Z,52.83
2023-01-03T22:47:17.570Z,52.08
2023-01-03T22:49:47.402Z,51.35
2023-01-03T22:52:15.794Z,52.03
2023-01-03T22:54:44.314Z,51.95
2023-01-03T22:57:12.719Z,51.97
2023-01-03T22:59:41.170Z,50.67
2023-01-03T23:02:09.796Z,52.15
2023-01-03T23:04:38.382Z,51.47
2023-01-03T23:07:08.246Z,51.20
2023-01-03T23:09:36.663Z,51.05
2023-01-03T23:12:22.693Z,52.47
2023-01-03T23:14:51.132Z,51.92
2023-01-03T23:17:37.117Z,51.92
2023-01-03T23:20:06.726Z,51.53
2023-01-03T23:22:36.633Z,51.30
2023-01-03T23:25:06.072Z,50.45
2023-01-03T23:27:34.802Z,50.92
2023-01-03T23:30:03.245Z,51.50
2023-01-03T23:32:33.570Z,50.35
2023-01-03T23:35:02.048Z,50.10
2023-01-03T23:37:30.475Z,50.65
2023-01-03T23:40:00.331Z,50.15
2023-01-03T23:42:30.563Z,49.97
2023-01-03T23:44:58.963Z,49.75
2023-01-03T23:47:27.449Z,50.10
2023-01-03T23:49:55.806Z,50.17
2023-01-03T23:52:24.274Z,50.05
2023-01-03T23:54:59.569Z,54.13
2023-01-03T23:57:31.573Z,50.05
2023-01-03T23:59:59.971Z,49.22
